createdAt,value
2018-04-24T00:02:23.685Z,75.92
2018-04-24T00:04:51.555Z,76.25
2018-04-24T00:07:19.178Z,76.09
2018-04-24T00:09:46.798Z,75.70
2018-04-24T00:12:14.438Z,75.89
2018-04-24T00:14:42.053Z,75.80
2018-04-24T00:17:09.692Z,76.46
2018-04-24T00:19:37.286Z,76.37
2018-04-24T00:22:05.286Z,76.37
2018-04-24T00:24:32.882Z,76.27
2018-04-24T00:27:00.489Z,75.84
2018-04-24T00:29:28.110Z,76.61
2018-04-24T00:31:55.711Z,76.09
2018-04-24T00:34:23.381Z,76.39
2018-04-24T00:36:50.959Z,76.11
2018-04-24T00:39:18.631Z,76.02
2018-04-24T00:41:46.313Z,76.60
2018-04-24T00:44:13.909Z,76.45
2018-04-24T00:46:41.528Z,76.12
2018-04-24T00:49:09.156Z,76.36
2018-04-24T00:51:36.786Z,76.40
2018-04-24T00:54:04.394Z,76.40
2018-04-24T00:56:32.026Z,75.44
2018-04-24T00:58:59.648Z,75.51
2018-04-24T01:01:27.306Z,76.10
2018-04-24T01:03:54.913Z,75.50
2018-04-24T01:06:22.530Z,75.68
2018-04-24T01:08:50.179Z,75.50
2018-04-24T01:11:17.779Z,75.69
2018-04-24T01:13:45.399Z,76.07
2018-04-24T01:16:12.992Z,75.92
2018-04-24T01:18:40.627Z,76.12
2018-04-24T01:21:08.235Z,76.27
2018-04-24T01:23:35.858Z,76.20
2018-04-24T01:26:03.462Z,76.43
2018-04-24T01:28:31.055Z,77.04
2018-04-24T01:30:58.678Z,77.04
2018-04-24T01:33:26.286Z,77.40
2018-04-24T01:35:53.907Z,77.49
2018-04-24T01:38:21.508Z,76.83
2018-04-24T01:40:49.164Z,76.82
2018-04-24T01:43:16.799Z,76.77
2018-04-24T01:45:44.712Z,76.79
2018-04-24T01:48:12.323Z,77.02
2018-04-24T01:50:39.924Z,76.39
2018-04-24T01:53:07.553Z,76.58
2018-04-24T01:55:36.201Z,77.08
2018-04-24T01:58:03.814Z,76.94
2018-04-24T02:00:31.413Z,76.70
2018-04-24T02:02:59.382Z,77.04
2018-04-24T02:05:26.983Z,77.44
2018-04-24T02:07:54.598Z,77.08
2018-04-24T02:10:22.221Z,77.01
2018-04-24T02:12:49.831Z,77.93
2018-04-24T02:15:18.443Z,77.21
2018-04-24T02:17:46.059Z,77.71
2018-04-24T02:20:13.811Z,77.76
2018-04-24T02:22:41.445Z,77.70
2018-04-24T02:25:09.035Z,77.35
2018-04-24T02:27:36.658Z,76.47
2018-04-24T02:30:04.259Z,76.57
2018-04-24T02:32:31.882Z,76.98
2018-04-24T02:34:59.487Z,76.78
2018-04-24T02:37:27.132Z,75.89
2018-04-24T02:39:54.735Z,75.73
2018-04-24T02:42:22.333Z,76.42
2018-04-24T02:44:49.982Z,76.39
2018-04-24T02:47:17.603Z,75.60
2018-04-24T02:49:45.221Z,75.71
2018-04-24T02:52:12.823Z,75.78
2018-04-24T02:54:40.442Z,75.62
2018-04-24T02:57:08.039Z,76.40
2018-04-24T02:59:35.795Z,76.73
2018-04-24T03:02:03.415Z,77.10
2018-04-24T03:04:31.014Z,77.04
2018-04-24T03:06:58.660Z,77.42
2018-04-24T03:09:26.255Z,76.83
2018-04-24T03:11:53.968Z,77.04
2018-04-24T03:14:21.506Z,77.34
2018-04-24T03:16:49.314Z,77.21
2018-04-24T03:19:16.909Z,77.07
2018-04-24T03:21:44.499Z,77.28
2018-04-24T03:24:12.121Z,76.75
2018-04-24T03:26:39.731Z,76.61
2018-04-24T03:29:07.353Z,76.30
2018-04-24T03:31:36.211Z,76.47
2018-04-24T03:34:04.099Z,76.62
2018-04-24T03:36:31.717Z,76.67
2018-04-24T03:38:59.329Z,76.39
2018-04-24T03:41:26.951Z,76.58
2018-04-24T03:43:54.572Z,77.06
2018-04-24T03:46:22.208Z,77.00
2018-04-24T03:48:49.872Z,76.73
2018-04-24T03:51:17.740Z,76.62
2018-04-24T03:53:45.335Z,76.96
2018-04-24T03:56:12.942Z,76.56
2018-04-24T03:58:40.556Z,76.84
2018-04-24T04:01:08.160Z,76.61
2018-04-24T04:03:35.789Z,76.46
2018-04-24T04:06:03.415Z,76.36
2018-04-24T04:08:31.168Z,76.37
2018-04-24T04:10:58.789Z,76.35
2018-04-24T04:13:26.389Z,76.50
2018-04-24T04:15:54.098Z,76.72
2018-04-24T04:18:33.377Z,76.65
2018-04-24T04:21:12.876Z,77.35
2018-04-24T04:23:52.256Z,76.91
2018-04-24T04:26:19.886Z,76.62
2018-04-24T04:28:49.161Z,76.96
2018-04-24T04:31:16.791Z,76.87
2018-04-24T04:33:44.392Z,76.57
2018-04-24T04:36:12.220Z,76.51
2018-04-24T04:38:39.832Z,76.39
2018-04-24T04:41:07.445Z,76.55
2018-04-24T04:43:35.081Z,76.49
2018-04-24T04:46:02.678Z,76.53
2018-04-24T04:48:30.790Z,76.35
2018-04-24T04:50:58.383Z,76.14
2018-04-24T04:53:25.995Z,75.97
2018-04-24T04:55:53.626Z,76.16
2018-04-24T04:58:21.226Z,76.36
2018-04-24T05:00:48.859Z,76.41
2018-04-24T05:03:16.461Z,76.19
2018-04-24T05:05:44.092Z,76.03
2018-04-24T05:08:11.685Z,76.03
2018-04-24T05:10:39.498Z,76.27
2018-04-24T05:13:07.130Z,76.01
2018-04-24T05:15:34.739Z,76.14
2018-04-24T05:18:02.372Z,76.35
2018-04-24T05:20:29.977Z,76.35
2018-04-24T05:22:57.606Z,76.33
2018-04-24T05:25:25.272Z,76.07
2018-04-24T05:27:52.903Z,75.83
2018-04-24T05:30:20.530Z,75.58
2018-04-24T05:32:48.123Z,75.79
2018-04-24T05:35:15.754Z,75.21
2018-04-24T05:37:43.358Z,75.82
2018-04-24T05:40:10.980Z,75.86
2018-04-24T05:42:38.585Z,75.57
2018-04-24T05:45:06.189Z,74.69
2018-04-24T05:47:33.904Z,74.63
2018-04-24T05:50:01.504Z,74.11
2018-04-24T05:52:29.170Z,74.01
2018-04-24T05:54:56.852Z,73.75
2018-04-24T05:57:24.402Z,73.10
2018-04-24T05:59:52.021Z,72.05
2018-04-24T06:02:19.614Z,72.26
2018-04-24T06:04:47.235Z,71.94
2018-04-24T06:07:14.847Z,71.78
2018-04-24T06:09:42.466Z,71.48
2018-04-24T06:12:10.068Z,70.80
2018-04-24T06:14:38.217Z,70.40
2018-04-24T06:17:05.825Z,70.42
2018-04-24T06:19:33.417Z,70.45
2018-04-24T06:22:01.208Z,69.98
2018-04-24T06:24:28.803Z,69.12
2018-04-24T06:26:56.417Z,68.70
2018-04-24T06:29:24.010Z,68.05
2018-04-24T06:31:51.688Z,68.30
2018-04-24T06:34:19.281Z,67.68
2018-04-24T06:36:46.938Z,66.00
2018-04-24T06:39:14.550Z,65.78
2018-04-24T06:41:42.132Z,65.62
2018-04-24T06:44:09.759Z,65.44
2018-04-24T06:46:37.354Z,64.24
2018-04-24T06:49:05.173Z,63.80
2018-04-24T06:51:32.775Z,64.26
2018-04-24T06:54:00.370Z,63.37
2018-04-24T06:56:27.981Z,62.81
2018-04-24T06:58:55.606Z,63.07
2018-04-24T07:01:23.230Z,62.00
2018-04-24T07:03:51.154Z,61.16
2018-04-24T07:06:19.059Z,60.16
2018-04-24T07:08:46.681Z,59.49
2018-04-24T07:11:14.323Z,58.88
2018-04-24T07:13:41.957Z,58.68
2018-04-24T07:16:09.549Z,58.11
2018-04-24T07:18:37.170Z,59.28
2018-04-24T07:21:04.772Z,57.93
2018-04-24T07:23:32.402Z,58.16
2018-04-24T07:25:59.998Z,57.46
2018-04-24T07:28:27.593Z,56.33
2018-04-24T07:30:55.218Z,57.18
2018-04-24T07:33:22.809Z,57.13
2018-04-24T07:35:50.453Z,57.42
2018-04-24T07:38:18.051Z,57.41
2018-04-24T07:40:45.834Z,56.86
2018-04-24T07:43:13.425Z,57.74
2018-04-24T07:45:41.057Z,57.76
2018-04-24T07:48:08.642Z,57.03
2018-04-24T07:50:36.239Z,57.09
2018-04-24T07:53:07.990Z,56.04
2018-04-24T07:55:35.637Z,56.57
2018-04-24T07:58:03.326Z,56.49
2018-04-24T08:00:30.923Z,55.74
2018-04-24T08:02:58.837Z,56.41
2018-04-24T08:05:26.443Z,56.54
2018-04-24T08:07:54.034Z,56.17
2018-04-24T08:10:21.650Z,56.01
2018-04-24T08:12:49.607Z,56.23
2018-04-24T08:15:17.290Z,56.26
2018-04-24T08:17:44.838Z,55.82
2018-04-24T08:20:12.637Z,55.31
2018-04-24T08:22:40.420Z,54.63
2018-04-24T08:25:08.414Z,54.32
2018-04-24T08:27:36.377Z,54.72
2018-04-24T08:30:04.014Z,54.43
2018-04-24T08:32:31.623Z,53.39
2018-04-24T08:34:59.242Z,53.30
2018-04-24T08:37:26.889Z,52.51
2018-04-24T08:39:54.487Z,51.54
2018-04-24T08:42:22.111Z,51.56
2018-04-24T08:44:50.765Z,51.47
2018-04-24T08:47:18.366Z,50.84
2018-04-24T08:49:46.003Z,50.69
2018-04-24T08:52:13.599Z,49.70
2018-04-24T08:54:41.395Z,50.16
2018-04-24T08:57:09.098Z,49.45
2018-04-24T08:59:36.709Z,49.41
2018-04-24T09:02:04.353Z,50.74
2018-04-24T09:04:32.774Z,50.67
2018-04-24T09:07:00.631Z,50.26
2018-04-24T09:09:28.303Z,50.09
2018-04-24T09:11:56.194Z,49.30
2018-04-24T09:14:23.790Z,48.40
2018-04-24T09:16:51.694Z,48.63
2018-04-24T09:19:19.286Z,48.09
2018-04-24T09:21:46.881Z,48.25
2018-04-24T09:24:14.646Z,48.27
2018-04-24T09:26:42.232Z,49.31
2018-04-24T09:29:09.842Z,48.48
2018-04-24T09:31:42.999Z,51.11
2018-04-24T09:34:10.808Z,48.10
2018-04-24T09:36:38.760Z,49.86
2018-04-24T09:39:06.428Z,46.21
2018-04-24T09:41:34.033Z,47.07
2018-04-24T09:44:01.858Z,46.01
2018-04-24T09:46:29.489Z,45.77
2018-04-24T09:48:57.087Z,46.29
2018-04-24T09:51:25.230Z,46.85
2018-04-24T09:53:52.819Z,46.66
2018-04-24T09:56:20.407Z,45.37
2018-04-24T09:58:48.075Z,45.79
2018-04-24T10:01:15.702Z,45.70
2018-04-24T10:03:43.913Z,44.64
2018-04-24T10:06:12.040Z,46.23
2018-04-24T10:08:39.757Z,47.09
2018-04-24T10:11:07.356Z,45.51
2018-04-24T10:13:35.016Z,45.50
2018-04-24T10:16:02.600Z,47.37
2018-04-24T10:18:30.216Z,45.44
2018-04-24T10:20:58.399Z,45.63
2018-04-24T10:23:27.208Z,45.70
2018-04-24T10:25:55.110Z,44.38
2018-04-24T10:28:23.048Z,45.43
2018-04-24T10:30:50.923Z,47.38
2018-04-24T10:33:18.941Z,45.37
2018-04-24T10:35:46.812Z,45.81
2018-04-24T10:38:14.911Z,44.86
2018-04-24T10:40:42.461Z,45.20
2018-04-24T10:43:10.080Z,44.66
2018-04-24T10:45:37.676Z,44.79
2018-04-24T10:48:05.379Z,45.39
2018-04-24T10:50:32.944Z,43.82
2018-04-24T10:53:00.541Z,44.78
2018-04-24T10:55:28.157Z,44.09
2018-04-24T10:57:55.747Z,43.65
2018-04-24T11:00:23.889Z,45.84
2018-04-24T11:02:51.734Z,45.07
2018-04-24T11:05:19.329Z,45.76
2018-04-24T11:07:46.954Z,44.56
2018-04-24T11:10:14.542Z,44.47
2018-04-24T11:12:42.188Z,44.58
2018-04-24T11:15:09.784Z,44.11
2018-04-24T11:17:37.422Z,43.92
2018-04-24T11:20:05.015Z,43.36
2018-04-24T11:22:32.630Z,42.87
2018-04-24T11:25:00.255Z,44.63
2018-04-24T11:27:27.864Z,44.35
2018-04-24T11:29:55.483Z,43.75
2018-04-24T11:32:23.155Z,43.39
2018-04-24T11:34:50.721Z,43.34
2018-04-24T11:37:18.316Z,41.29
2018-04-24T11:39:45.913Z,40.91
2018-04-24T11:42:13.530Z,42.83
2018-04-24T11:44:41.122Z,41.75
2018-04-24T11:47:08.737Z,43.77
2018-04-24T11:49:36.416Z,41.51
2018-04-24T11:52:04.073Z,40.97
2018-04-24T11:54:31.663Z,42.32
2018-04-24T11:56:59.261Z,41.68
2018-04-24T11:59:27.160Z,42.35
2018-04-24T12:01:54.755Z,41.22
2018-04-24T12:04:22.399Z,41.50
2018-04-24T12:06:49.991Z,41.70
2018-04-24T12:09:17.588Z,41.73
2018-04-24T12:11:45.610Z,42.06
2018-04-24T12:14:13.436Z,42.64
2018-04-24T12:16:41.061Z,41.72
2018-04-24T12:19:08.672Z,42.21
2018-04-24T12:21:36.738Z,41.24
2018-04-24T12:24:04.359Z,42.25
2018-04-24T12:26:32.155Z,42.62
2018-04-24T12:29:01.369Z,43.10
2018-04-24T12:31:30.472Z,43.69
2018-04-24T12:34:00.727Z,43.92
2018-04-24T12:36:28.491Z,44.84
2018-04-24T12:38:56.166Z,45.38
2018-04-24T12:41:23.748Z,45.70
2018-04-24T12:43:51.337Z,45.34
2018-04-24T12:46:19.231Z,45.18
2018-04-24T12:48:46.830Z,44.73
2018-04-24T12:51:14.843Z,44.06
2018-04-24T12:53:42.434Z,44.14
2018-04-24T12:56:10.289Z,43.39
2018-04-24T12:58:37.899Z,42.32
2018-04-24T13:01:05.550Z,40.50
2018-04-24T13:03:33.176Z,40.61
2018-04-24T13:06:00.867Z,40.86
2018-04-24T13:08:28.458Z,40.31
2018-04-24T13:10:56.082Z,38.87
2018-04-24T13:13:24.283Z,38.60
2018-04-24T13:15:59.052Z,38.06
2018-04-24T13:18:26.895Z,41.10
2018-04-24T13:20:54.577Z,40.22
2018-04-24T13:23:22.901Z,39.54
2018-04-24T13:25:51.026Z,39.14
2018-04-24T13:28:18.745Z,39.48
2018-04-24T13:30:46.335Z,38.99
2018-04-24T13:33:13.975Z,38.05
2018-04-24T13:35:41.685Z,36.99
2018-04-24T13:38:09.549Z,36.77
2018-04-24T13:40:37.139Z,36.56
2018-04-24T13:43:04.779Z,38.18
2018-04-24T13:45:32.407Z,37.40
2018-04-24T13:48:00.001Z,36.36
2018-04-24T13:50:27.655Z,36.19
2018-04-24T13:52:55.412Z,36.00
2018-04-24T13:55:23.247Z,37.45
2018-04-24T13:57:50.850Z,36.40
2018-04-24T14:00:18.626Z,37.84
2018-04-24T14:02:46.239Z,38.04
2018-04-24T14:05:13.823Z,38.09
2018-04-24T14:07:41.574Z,38.00
2018-04-24T14:10:09.221Z,38.20
2018-04-24T14:12:36.827Z,38.85
2018-04-24T14:15:04.991Z,39.04
2018-04-24T14:17:32.611Z,38.88
2018-04-24T14:20:00.461Z,39.11
2018-04-24T14:22:28.059Z,38.38
2018-04-24T14:24:56.150Z,39.33
2018-04-24T14:27:23.735Z,39.34
2018-04-24T14:29:51.445Z,38.47
2018-04-24T14:32:19.051Z,39.11
2018-04-24T14:34:46.649Z,38.89
2018-04-24T14:37:14.297Z,39.07
2018-04-24T14:39:41.931Z,39.84
2018-04-24T14:42:09.700Z,40.50
2018-04-24T14:44:37.295Z,40.47
2018-04-24T14:47:04.890Z,40.17
2018-04-24T14:49:32.499Z,40.06
2018-04-24T14:52:00.122Z,40.37
2018-04-24T14:54:27.732Z,40.89
2018-04-24T14:56:55.335Z,40.86
2018-04-24T14:59:22.988Z,41.21
2018-04-24T15:01:50.580Z,40.83
2018-04-24T15:04:18.173Z,39.96
2018-04-24T15:06:45.792Z,39.51
2018-04-24T15:09:13.374Z,38.68
2018-04-24T15:11:44.163Z,38.83
2018-04-24T15:14:12.094Z,37.43
2018-04-24T15:16:40.034Z,38.49
2018-04-24T15:19:07.699Z,38.55
2018-04-24T15:21:35.309Z,39.39
2018-04-24T15:24:02.994Z,38.15
2018-04-24T15:26:30.600Z,38.36
2018-04-24T15:28:58.207Z,38.71
2018-04-24T15:31:25.797Z,38.58
2018-04-24T15:33:53.672Z,39.05
2018-04-24T15:36:21.288Z,39.55
2018-04-24T15:38:48.911Z,40.42
2018-04-24T15:41:16.536Z,40.79
2018-04-24T15:43:44.135Z,40.55
2018-04-24T15:46:11.788Z,40.03
2018-04-24T15:48:39.374Z,40.55
2018-04-24T15:51:07.202Z,41.36
2018-04-24T15:53:34.791Z,41.20
2018-04-24T15:56:02.445Z,40.32
2018-04-24T15:58:30.061Z,39.85
2018-04-24T16:00:57.663Z,41.14
2018-04-24T16:03:25.293Z,41.64
2018-04-24T16:05:52.887Z,41.23
2018-04-24T16:08:20.749Z,42.24
2018-04-24T16:10:48.515Z,41.55
2018-04-24T16:13:16.107Z,42.03
2018-04-24T16:15:43.715Z,41.97
2018-04-24T16:18:11.300Z,42.56
2018-04-24T16:20:38.913Z,43.11
2018-04-24T16:23:06.526Z,43.63
2018-04-24T16:25:34.156Z,43.70
2018-04-24T16:28:01.766Z,43.83
2018-04-24T16:30:29.384Z,43.79
2018-04-24T16:32:57.004Z,43.50
2018-04-24T16:35:24.596Z,44.00
2018-04-24T16:37:52.225Z,44.69
2018-04-24T16:40:19.816Z,45.24
2018-04-24T16:42:47.450Z,45.49
2018-04-24T16:45:15.047Z,45.29
2018-04-24T16:47:42.642Z,45.55
2018-04-24T16:50:10.289Z,45.50
2018-04-24T16:52:37.882Z,45.64
2018-04-24T16:55:05.511Z,45.96
2018-04-24T16:57:33.110Z,46.28
2018-04-24T17:00:00.748Z,46.11
2018-04-24T17:02:28.345Z,46.19
2018-04-24T17:04:55.955Z,46.37
2018-04-24T17:07:23.591Z,46.68
2018-04-24T17:09:51.223Z,47.06
2018-04-24T17:12:18.850Z,47.23
2018-04-24T17:14:46.470Z,47.39
2018-04-24T17:17:14.383Z,47.89
2018-04-24T17:19:41.982Z,47.71
2018-04-24T17:22:09.586Z,48.03
2018-04-24T17:24:37.216Z,48.29
2018-04-24T17:27:04.842Z,48.65
2018-04-24T17:29:32.496Z,48.69
2018-04-24T17:32:00.092Z,48.92
2018-04-24T17:34:27.749Z,49.42
2018-04-24T17:36:55.347Z,48.87
2018-04-24T17:39:22.944Z,48.64
2018-04-24T17:41:50.556Z,49.04
2018-04-24T17:44:18.151Z,48.97
2018-04-24T17:46:45.822Z,49.70
2018-04-24T17:49:13.425Z,49.66
2018-04-24T17:51:41.244Z,49.77
2018-04-24T17:54:09.140Z,50.55
2018-04-24T17:56:36.797Z,50.44
2018-04-24T17:59:04.385Z,50.63
2018-04-24T18:01:31.971Z,50.90
2018-04-24T18:03:59.591Z,50.50
2018-04-24T18:06:27.229Z,50.84
2018-04-24T18:08:54.894Z,51.00
2018-04-24T18:11:22.509Z,51.72
2018-04-24T18:13:50.209Z,51.59
2018-04-24T18:16:17.850Z,51.65
2018-04-24T18:18:46.238Z,51.33
2018-04-24T18:21:13.853Z,51.06
2018-04-24T18:23:41.455Z,51.16
2018-04-24T18:26:09.083Z,51.62
2018-04-24T18:28:36.696Z,51.86
2018-04-24T18:31:04.303Z,51.81
2018-04-24T18:33:31.919Z,51.83
2018-04-24T18:35:59.523Z,51.65
2018-04-24T18:38:27.151Z,51.73
2018-04-24T18:40:54.763Z,51.83
2018-04-24T18:43:22.690Z,52.21
2018-04-24T18:45:50.291Z,52.50
2018-04-24T18:48:17.895Z,52.57
2018-04-24T18:50:45.524Z,52.66
2018-04-24T18:53:13.161Z,52.95
2018-04-24T18:55:40.773Z,52.88
2018-04-24T18:58:08.391Z,52.83
2018-04-24T19:00:36.213Z,52.78
2018-04-24T19:03:03.818Z,52.93
2018-04-24T19:05:31.427Z,52.53
2018-04-24T19:07:59.058Z,52.40
2018-04-24T19:10:26.667Z,52.65
2018-04-24T19:12:54.294Z,52.42
2018-04-24T19:15:21.894Z,52.83
2018-04-24T19:17:49.523Z,52.95
2018-04-24T19:20:17.123Z,53.50
2018-04-24T19:22:44.751Z,53.74
2018-04-24T19:25:17.762Z,54.11
2018-04-24T19:27:45.390Z,54.70
2018-04-24T19:30:12.999Z,55.01
2018-04-24T19:32:40.604Z,55.13
2018-04-24T19:35:08.230Z,55.65
2018-04-24T19:37:35.835Z,56.25
2018-04-24T19:40:09.050Z,56.42
2018-04-24T19:42:36.655Z,56.62
2018-04-24T19:45:04.262Z,56.93
2018-04-24T19:47:31.882Z,57.09
2018-04-24T19:50:05.025Z,57.26
2018-04-24T19:52:32.648Z,57.50
2018-04-24T19:55:05.888Z,57.60
2018-04-24T19:57:33.504Z,57.65
2018-04-24T20:00:01.125Z,57.73
2018-04-24T20:02:28.740Z,58.03
2018-04-24T20:04:56.334Z,58.00
2018-04-24T20:07:24.208Z,58.09
2018-04-24T20:09:51.914Z,58.44
2018-04-24T20:12:19.521Z,58.50
2018-04-24T20:14:47.148Z,58.66
2018-04-24T20:17:14.738Z,59.65
2018-04-24T20:19:42.359Z,59.64
2018-04-24T20:22:09.956Z,59.91
2018-04-24T20:24:37.635Z,60.09
2018-04-24T20:27:05.238Z,60.18
2018-04-24T20:29:32.834Z,60.33
2018-04-24T20:32:00.487Z,60.54
2018-04-24T20:34:28.086Z,61.11
2018-04-24T20:36:55.742Z,60.92
2018-04-24T20:39:23.341Z,61.05
2018-04-24T20:41:50.933Z,60.98
2018-04-24T20:44:18.552Z,61.36
2018-04-24T20:46:46.148Z,61.63
2018-04-24T20:49:13.771Z,61.40
2018-04-24T20:51:41.392Z,61.57
2018-04-24T20:54:09.063Z,61.78
2018-04-24T20:56:36.660Z,61.64
2018-04-24T20:59:04.260Z,61.78
2018-04-24T21:01:31.908Z,62.05
2018-04-24T21:03:59.508Z,62.19
2018-04-24T21:06:27.133Z,62.61
2018-04-24T21:08:54.727Z,62.56
2018-04-24T21:11:22.402Z,63.18
2018-04-24T21:13:50.197Z,62.94
2018-04-24T21:16:17.794Z,62.74
2018-04-24T21:18:45.410Z,62.75
2018-04-24T21:21:13.017Z,62.72
2018-04-24T21:23:40.657Z,62.86
2018-04-24T21:26:08.272Z,62.82
2018-04-24T21:28:36.011Z,62.71
2018-04-24T21:31:03.606Z,63.14
2018-04-24T21:33:31.315Z,63.06
2018-04-24T21:35:58.942Z,62.89
2018-04-24T21:38:26.538Z,63.14
2018-04-24T21:40:54.162Z,63.37
2018-04-24T21:43:21.762Z,63.32
2018-04-24T21:45:49.414Z,63.33
2018-04-24T21:48:17.056Z,63.37
2018-04-24T21:50:44.655Z,63.54
2018-04-24T21:53:12.270Z,63.44
2018-04-24T21:55:39.886Z,63.86
2018-04-24T21:58:07.511Z,63.80
2018-04-24T22:00:35.122Z,64.08
2018-04-24T22:03:02.796Z,64.05
2018-04-24T22:05:30.395Z,64.20
2018-04-24T22:07:57.987Z,64.28
2018-04-24T22:10:25.612Z,64.70
2018-04-24T22:12:53.205Z,64.89
2018-04-24T22:15:20.824Z,64.75
2018-04-24T22:17:48.436Z,64.95
2018-04-24T22:20:16.097Z,65.07
2018-04-24T22:22:43.697Z,65.18
2018-04-24T22:25:11.302Z,65.32
2018-04-24T22:27:38.938Z,65.31
2018-04-24T22:30:06.538Z,65.33
2018-04-24T22:32:34.156Z,65.39
2018-04-24T22:35:01.761Z,65.90
2018-04-24T22:37:29.663Z,66.02
2018-04-24T22:39:57.287Z,66.20
2018-04-24T22:42:24.875Z,66.40
2018-04-24T22:44:52.494Z,66.65
2018-04-24T22:47:20.086Z,66.80
2018-04-24T22:49:47.743Z,67.08
2018-04-24T22:52:15.392Z,66.97
2018-04-24T22:54:43.011Z,66.88
2018-04-24T22:57:10.831Z,67.15
2018-04-24T22:59:38.429Z,67.49
2018-04-24T23:02:06.064Z,67.45
2018-04-24T23:04:33.756Z,67.56
2018-04-24T23:07:01.402Z,67.80
2018-04-24T23:09:28.998Z,68.04
2018-04-24T23:12:08.483Z,67.98
2018-04-24T23:14:47.870Z,68.18
2018-04-24T23:17:27.372Z,68.08
2018-04-24T23:20:06.746Z,68.28
2018-04-24T23:22:34.410Z,68.25
2018-04-24T23:25:02.009Z,68.62
2018-04-24T23:27:29.653Z,68.71
2018-04-24T23:29:57.302Z,68.75
2018-04-24T23:32:24.900Z,68.79
2018-04-24T23:34:52.536Z,68.78
2018-04-24T23:37:20.143Z,69.13
2018-04-24T23:39:47.770Z,68.93
2018-04-24T23:42:15.387Z,69.36
2018-04-24T23:44:43.021Z,69.30
2018-04-24T23:47:10.616Z,69.15
2018-04-24T23:49:38.310Z,69.21
2018-04-24T23:52:05.902Z,68.99
2018-04-24T23:54:33.505Z,69.14
2018-04-24T23:57:01.137Z,69.20
2018-04-24T23:59:28.839Z,69.16
